Time;durP1;ratioP1;P1;durP2;ratioP2;P2;SDS_P1;SDS_P2;PMS_P1;PMS_P2;Temp;Humidity;BMP_temperature;BMP_pressure;BME280_temperature;BME280_humidity;BME280_pressure;Samples;Min_cycle;Max_cycle;Signal;HPM_P1;HPM_P2
2022/08/23 00:00:28;;;;;;;;;;;18.30;99.90;;;;;;4194698;28;19905;-62
2022/08/23 00:02:29;;;;;;;;;;;18.30;99.90;;;;;;4194937;28;19934;-62
2022/08/23 00:04:31;;;;;;;;;;;18.30;99.90;;;;;;4194055;28;19904;-62
2022/08/23 00:06:32;;;;;;;;;;;18.30;99.90;;;;;;4195397;28;19904;-62
2022/08/23 00:08:33;;;;;;;;;;;18.40;99.90;;;;;;4194246;28;19912;-61
2022/08/23 00:10:34;;;;;;;;;;;18.30;99.90;;;;;;4194877;28;19909;-62
2022/08/23 00:12:35;;;;;;;;;;;18.40;99.90;;;;;;4193961;28;19923;-62
2022/08/23 00:14:38;;;;;;;;;;;18.40;99.90;;;;;;4195106;28;19904;-62
2022/08/23 00:16:40;;;;;;;;;;;18.40;99.90;;;;;;4194177;28;19908;-62
2022/08/23 00:18:41;;;;;;;;;;;18.30;99.90;;;;;;4193134;28;19908;-62
2022/08/23 00:20:42;;;;;;;;;;;18.30;99.90;;;;;;4194327;28;19934;-62
2022/08/23 00:22:43;;;;;;;;;;;18.30;99.90;;;;;;4194855;28;19905;-63
2022/08/23 00:24:44;;;;;;;;;;;18.30;99.90;;;;;;4193826;28;19970;-62
2022/08/23 00:27:06;;;;;;;;;;;18.30;99.90;;;;;;4193794;28;19927;-61
2022/08/23 00:29:07;;;;;;;;;;;18.30;99.90;;;;;;4193810;28;19908;-62
2022/08/23 00:31:08;;;;;;;;;;;18.30;99.90;;;;;;4194181;28;19950;-62
2022/08/23 00:33:09;;;;;;;;;;;18.30;99.90;;;;;;4194409;28;19920;-62
2022/08/23 00:35:11;;;;;;;;;;;18.30;99.90;;;;;;4194014;28;19912;-62
2022/08/23 00:37:12;;;;;;;;;;;18.20;99.90;;;;;;4194458;28;19904;-62
2022/08/23 00:39:13;;;;;;;;;;;18.20;99.90;;;;;;4193763;28;20616;-62
2022/08/23 00:41:14;;;;;;;;;;;18.20;99.90;;;;;;4194698;28;20246;-62
2022/08/23 00:48:06;;;;;;;;;;;18.10;99.90;;;;;;4193741;28;19949;-62
2022/08/23 00:50:12;;;;;;;;;;;18.10;99.90;;;;;;4194492;28;19958;-62
2022/08/23 00:52:17;;;;;;;;;;;18.00;99.90;;;;;;4193614;28;20353;-62
2022/08/23 00:54:19;;;;;;;;;;;18.00;99.90;;;;;;4194472;28;19953;-62
2022/08/23 00:56:21;;;;;;;;;;;18.00;99.90;;;;;;4193277;28;19908;-62
2022/08/23 00:58:22;;;;;;;;;;;18.00;99.90;;;;;;4194629;28;19908;-61
2022/08/23 01:00:24;;;;;;;;;;;18.00;99.90;;;;;;4192948;28;19954;-63
2022/08/23 01:02:25;;;;;;;;;;;18.00;99.90;;;;;;4192719;28;19904;-63
2022/08/23 01:04:29;;;;;;;;;;;17.90;99.90;;;;;;4193457;28;19969;-62
2022/08/23 01:06:49;;;;;;;;;;;18.00;99.90;;;;;;4193940;28;19950;-62
2022/08/23 01:08:53;;;;;;;;;;;17.90;99.90;;;;;;4193363;28;19912;-62
2022/08/23 01:10:56;;;;;;;;;;;17.90;99.90;;;;;;4194331;28;19950;-62
2022/08/23 01:12:59;;;;;;;;;;;17.90;99.90;;;;;;4193170;28;19912;-62
2022/08/23 01:15:05;;;;;;;;;;;17.90;99.90;;;;;;4194348;28;20323;-62
2022/08/23 01:17:15;;;;;;;;;;;17.80;99.90;;;;;;4193309;28;20355;-62
2022/08/23 01:19:28;;;;;;;;;;;17.80;99.90;;;;;;4194042;28;19908;-63
2022/08/23 01:21:31;;;;;;;;;;;17.80;99.90;;;;;;4193448;28;19957;-62
2022/08/23 01:23:38;;;;;;;;;;;17.80;99.90;;;;;;4194287;28;20307;-63
2022/08/23 01:25:39;;;;;;;;;;;17.70;99.90;;;;;;4193263;28;20326;-63
2022/08/23 01:27:40;;;;;;;;;;;17.70;99.90;;;;;;4194073;28;19958;-63
2022/08/23 01:29:41;;;;;;;;;;;17.70;99.90;;;;;;4193549;28;20342;-62
2022/08/23 01:31:42;;;;;;;;;;;17.70;99.90;;;;;;4193451;28;19912;-63
2022/08/23 01:33:45;;;;;;;;;;;17.70;99.90;;;;;;4193726;28;19962;-61
2022/08/23 01:35:52;;;;;;;;;;;17.70;99.90;;;;;;4193574;28;19979;-63
2022/08/23 01:37:53;;;;;;;;;;;17.70;99.90;;;;;;4193988;28;19912;-63
2022/08/23 01:39:54;;;;;;;;;;;17.70;99.90;;;;;;4193310;28;19908;-63
2022/08/23 01:41:55;;;;;;;;;;;17.70;99.90;;;;;;4193981;28;19904;-62
2022/08/23 01:43:56;;;;;;;;;;;17.70;99.90;;;;;;4193178;28;19908;-62
2022/08/23 01:45:57;;;;;;;;;;;17.70;99.90;;;;;;4194171;28;19904;-63
2022/08/23 01:47:58;;;;;;;;;;;17.70;99.90;;;;;;4192864;28;20422;-62
2022/08/23 01:49:59;;;;;;;;;;;17.70;99.90;;;;;;4194186;28;20413;-62
2022/08/23 01:52:00;;;;;;;;;;;17.70;99.90;;;;;;4191686;28;19916;-64
2022/08/23 01:54:01;;;;;;;;;;;17.70;99.90;;;;;;4193792;28;19908;-63
2022/08/23 01:56:03;;;;;;;;;;;17.60;99.90;;;;;;4193017;28;20291;-62
2022/08/23 01:58:04;;;;;;;;;;;17.60;99.90;;;;;;4193526;28;19905;-62
2022/08/23 02:00:06;;;;;;;;;;;17.60;99.90;;;;;;4193282;28;19912;-63
2022/08/23 02:02:07;;;;;;;;;;;17.60;99.90;;;;;;4193035;28;19938;-63
2022/08/23 02:04:07;;;;;;;;;;;17.60;99.90;;;;;;4193340;28;20388;-63
2022/08/23 02:06:08;;;;;;;;;;;17.60;99.90;;;;;;4193261;28;20348;-63
2022/08/23 02:10:29;;;;;;;;;;;17.80;99.90;;;;;;4193493;28;19950;-63
2022/08/23 02:12:30;;;;;;;;;;;17.80;99.90;;;;;;4195807;28;20007;-63
2022/08/23 02:14:31;;;;;;;;;;;17.80;99.90;;;;;;4196161;28;19966;-64
2022/08/23 02:16:37;;;;;;;;;;;17.80;99.90;;;;;;4196970;28;19904;-63
2022/08/23 02:18:38;;;;;;;;;;;17.80;99.90;;;;;;4194141;28;19908;-64
2022/08/23 02:20:50;;;;;;;;;;;17.90;99.90;;;;;;4197062;28;20012;-63
2022/08/23 02:22:51;;;;;;;;;;;17.90;99.90;;;;;;4195856;28;19908;-63
2022/08/23 02:24:51;;;;;;;;;;;17.90;99.90;;;;;;4196942;28;19904;-62
2022/08/23 02:26:54;;;;;;;;;;;17.90;99.90;;;;;;4195755;28;19990;-63
2022/08/23 02:28:55;;;;;;;;;;;17.80;99.90;;;;;;4196913;28;19950;-63
2022/08/23 02:30:56;;;;;;;;;;;17.70;99.90;;;;;;4195589;28;19909;-63
2022/08/23 02:32:56;;;;;;;;;;;17.70;99.90;;;;;;4196321;28;19912;-64
2022/08/23 02:34:57;;;;;;;;;;;17.60;99.90;;;;;;4195294;28;19911;-63
2022/08/23 02:36:59;;;;;;;;;;;17.50;99.90;;;;;;4196529;28;19908;-63
2022/08/23 02:38:59;;;;;;;;;;;17.60;99.90;;;;;;4195821;28;19905;-63
2022/08/23 02:41:00;;;;;;;;;;;17.60;99.90;;;;;;4196136;28;20458;-63
2022/08/23 02:43:02;;;;;;;;;;;17.60;99.90;;;;;;4196044;28;20394;-63
2022/08/23 02:45:03;;;;;;;;;;;17.60;99.90;;;;;;4195910;28;19993;-63
2022/08/23 02:47:06;;;;;;;;;;;17.60;99.90;;;;;;4196269;28;19904;-61
2022/08/23 02:49:07;;;;;;;;;;;17.60;99.90;;;;;;4195563;28;19912;-62
2022/08/23 02:51:09;;;;;;;;;;;17.60;99.90;;;;;;4196060;28;19955;-63
2022/08/23 02:53:10;;;;;;;;;;;17.60;99.90;;;;;;4195238;28;20388;-63
2022/08/23 02:55:11;;;;;;;;;;;17.60;99.90;;;;;;4196377;28;19954;-62
2022/08/23 02:57:12;;;;;;;;;;;17.60;99.90;;;;;;4195219;28;19905;-62
2022/08/23 02:59:13;;;;;;;;;;;17.60;99.90;;;;;;4196511;28;20474;-62
2022/08/23 03:01:16;;;;;;;;;;;17.70;99.90;;;;;;4195310;28;19908;-62
2022/08/23 03:03:18;;;;;;;;;;;17.70;99.90;;;;;;4196116;28;20009;-63
2022/08/23 03:05:19;;;;;;;;;;;17.70;99.90;;;;;;4193722;28;19938;-62
2022/08/23 03:07:20;;;;;;;;;;;17.70;99.90;;;;;;4196210;28;19994;-63
2022/08/23 03:09:20;;;;;;;;;;;17.70;99.90;;;;;;4195346;28;20014;-63
2022/08/23 03:11:22;;;;;;;;;;;17.70;99.90;;;;;;4195901;28;19905;-63
2022/08/23 03:13:23;;;;;;;;;;;17.70;99.90;;;;;;4195378;28;20317;-63
2022/08/23 03:15:24;;;;;;;;;;;17.80;99.90;;;;;;4195404;28;19911;-62
2022/08/23 03:17:25;;;;;;;;;;;17.80;99.90;;;;;;4195648;28;19904;-63
2022/08/23 03:19:26;;;;;;;;;;;17.80;99.90;;;;;;4195224;28;19908;-63
2022/08/23 03:21:27;;;;;;;;;;;17.80;99.90;;;;;;4195564;28;19904;-63
2022/08/23 03:23:28;;;;;;;;;;;17.70;99.90;;;;;;4193425;28;19970;-63
2022/08/23 03:25:29;;;;;;;;;;;17.70;99.90;;;;;;4195606;28;19904;-62
2022/08/23 03:27:30;;;;;;;;;;;17.70;99.90;;;;;;4194311;28;19962;-62
2022/08/23 03:29:31;;;;;;;;;;;17.60;99.90;;;;;;4196049;28;19912;-62
2022/08/23 03:31:32;;;;;;;;;;;17.60;99.90;;;;;;4194842;28;19904;-63
2022/08/23 03:33:33;;;;;;;;;;;17.50;99.90;;;;;;4194298;28;19982;-63
2022/08/23 03:35:34;;;;;;;;;;;17.50;99.90;;;;;;4194365;28;20221;-62
2022/08/23 03:37:35;;;;;;;;;;;17.50;99.90;;;;;;4195604;28;20712;-62
2022/08/23 03:39:36;;;;;;;;;;;17.50;99.90;;;;;;4194901;28;19954;-62
2022/08/23 03:41:37;;;;;;;;;;;17.50;99.90;;;;;;4195404;28;20485;-64
2022/08/23 03:43:38;;;;;;;;;;;17.50;99.90;;;;;;4195012;28;19908;-63
2022/08/23 03:45:39;;;;;;;;;;;17.60;99.90;;;;;;4195060;28;19916;-63
2022/08/23 03:47:41;;;;;;;;;;;17.60;99.90;;;;;;4194963;28;19908;-63
2022/08/23 03:49:42;;;;;;;;;;;17.60;99.90;;;;;;4194133;28;19950;-63
2022/08/23 03:51:43;;;;;;;;;;;17.60;99.90;;;;;;4195269;28;20368;-62
2022/08/23 03:53:45;;;;;;;;;;;17.60;99.90;;;;;;4194225;28;19916;-63
2022/08/23 03:55:46;;;;;;;;;;;17.60;99.90;;;;;;4195448;28;19912;-63
2022/08/23 03:57:47;;;;;;;;;;;17.70;99.90;;;;;;4194378;28;19904;-64
2022/08/23 03:59:48;;;;;;;;;;;17.70;99.90;;;;;;4195450;28;19904;-62
2022/08/23 04:01:49;;;;;;;;;;;17.70;99.90;;;;;;4193999;28;19974;-63
2022/08/23 04:03:50;;;;;;;;;;;17.70;99.90;;;;;;4195025;28;19958;-63
2022/08/23 04:05:51;;;;;;;;;;;17.70;99.90;;;;;;4194034;28;19935;-63
2022/08/23 04:07:52;;;;;;;;;;;17.70;99.90;;;;;;4194827;28;19943;-65
2022/08/23 04:09:53;;;;;;;;;;;17.80;99.90;;;;;;4194140;28;20263;-62
2022/08/23 04:11:54;;;;;;;;;;;17.90;99.90;;;;;;4194597;28;19905;-62
2022/08/23 04:13:55;;;;;;;;;;;17.90;99.90;;;;;;4194187;28;19940;-62
2022/08/23 04:15:57;;;;;;;;;;;18.10;99.90;;;;;;4194212;28;20008;-62
2022/08/23 04:17:58;;;;;;;;;;;18.10;99.90;;;;;;4194471;28;20357;-62
2022/08/23 04:19:59;;;;;;;;;;;18.20;99.90;;;;;;4193878;28;19904;-63
2022/08/23 04:22:00;;;;;;;;;;;18.30;99.90;;;;;;4193854;28;19950;-63
2022/08/23 04:24:01;;;;;;;;;;;18.50;99.90;;;;;;4193790;28;19999;-62
2022/08/23 04:26:05;;;;;;;;;;;18.60;99.90;;;;;;4194333;28;19908;-62
2022/08/23 04:28:05;;;;;;;;;;;18.80;99.90;;;;;;4193324;28;20380;-62
2022/08/23 04:30:07;;;;;;;;;;;19.10;99.90;;;;;;4194780;28;19908;-63
2022/08/23 04:32:08;;;;;;;;;;;19.40;99.90;;;;;;4193155;28;19962;-62
2022/08/23 04:34:10;;;;;;;;;;;19.60;99.90;;;;;;4193522;28;19920;-63
2022/08/23 04:36:10;;;;;;;;;;;19.80;99.90;;;;;;4193578;28;19909;-63
2022/08/23 04:38:11;;;;;;;;;;;20.20;99.90;;;;;;4194052;28;20082;-62
2022/08/23 04:42:32;;;;;;;;;;;20.70;99.90;;;;;;4194642;28;20314;-62
2022/08/23 04:44:33;;;;;;;;;;;20.90;99.90;;;;;;4193524;28;19905;-63
2022/08/23 04:46:34;;;;;;;;;;;21.20;99.90;;;;;;4193622;28;19908;-62
2022/08/23 04:48:35;;;;;;;;;;;21.50;99.90;;;;;;4192896;28;19912;-62
2022/08/23 04:50:36;;;;;;;;;;;21.70;99.90;;;;;;4191982;28;19913;-63
2022/08/23 04:52:37;;;;;;;;;;;21.90;99.90;;;;;;4193850;28;19916;-63
2022/08/23 04:54:38;;;;;;;;;;;22.10;99.90;;;;;;4193430;28;19914;-63
2022/08/23 04:56:39;;;;;;;;;;;22.20;99.90;;;;;;4194048;28;19905;-63
2022/08/23 04:58:40;;;;;;;;;;;22.40;99.90;;;;;;4193380;28;19904;-63
2022/08/23 05:00:41;;;;;;;;;;;22.50;99.90;;;;;;4194312;28;20257;-62
2022/08/23 05:02:42;;;;;;;;;;;22.60;99.90;;;;;;4193125;28;20351;-63
2022/08/23 05:04:43;;;;;;;;;;;22.60;99.90;;;;;;4194307;28;19954;-63
2022/08/23 05:06:44;;;;;;;;;;;22.70;99.90;;;;;;4193019;28;19999;-63
2022/08/23 05:08:45;;;;;;;;;;;22.80;99.90;;;;;;4194375;28;19908;-65
2022/08/23 05:10:46;;;;;;;;;;;22.90;99.90;;;;;;4192978;28;19950;-64
2022/08/23 05:12:47;;;;;;;;;;;22.70;99.90;;;;;;4194064;28;20265;-63
2022/08/23 05:14:48;;;;;;;;;;;22.50;99.90;;;;;;4192807;28;19970;-63
2022/08/23 05:16:49;;;;;;;;;;;22.30;99.90;;;;;;4193666;28;19908;-63
2022/08/23 05:18:50;;;;;;;;;;;22.30;99.90;;;;;;4193216;28;19905;-63
2022/08/23 05:20:51;;;;;;;;;;;22.50;99.90;;;;;;4193579;28;19904;-63
2022/08/23 05:22:53;;;;;;;;;;;22.70;99.90;;;;;;4193791;28;19951;-63
2022/08/23 05:24:54;;;;;;;;;;;22.90;99.90;;;;;;4193383;28;19912;-65
2022/08/23 05:26:55;;;;;;;;;;;23.00;99.90;;;;;;4193733;28;20206;-63
2022/08/23 05:28:55;;;;;;;;;;;23.10;99.90;;;;;;4192554;28;19938;-62
2022/08/23 05:30:59;;;;;;;;;;;23.20;99.90;;;;;;4193844;28;19934;-63
2022/08/23 05:33:00;;;;;;;;;;;23.40;99.90;;;;;;4192355;28;19957;-63
2022/08/23 05:35:01;;;;;;;;;;;23.50;99.90;;;;;;4193438;28;19908;-63
2022/08/23 05:37:02;;;;;;;;;;;23.80;99.90;;;;;;4192844;28;19908;-62
2022/08/23 05:39:04;;;;;;;;;;;23.90;99.90;;;;;;4193938;28;19966;-62
2022/08/23 05:41:05;;;;;;;;;;;23.80;99.90;;;;;;4192319;28;19917;-62
2022/08/23 05:43:06;;;;;;;;;;;23.70;99.90;;;;;;4193856;28;19912;-62
2022/08/23 05:45:08;;;;;;;;;;;23.80;99.90;;;;;;4192794;28;19954;-62
2022/08/23 05:47:10;;;;;;;;;;;23.80;99.90;;;;;;4195256;28;19926;-63
2022/08/23 05:49:11;;;;;;;;;;;23.60;99.90;;;;;;4195833;28;20307;-63
2022/08/23 05:51:14;;;;;;;;;;;23.50;99.90;;;;;;4196690;28;19912;-63
2022/08/23 05:53:15;;;;;;;;;;;23.70;99.90;;;;;;4196468;28;20429;-62
2022/08/23 05:55:16;;;;;;;;;;;23.70;99.90;;;;;;4196059;28;19950;-62
2022/08/23 05:57:17;;;;;;;;;;;23.90;99.90;;;;;;4196707;28;19904;-63
2022/08/23 05:59:19;;;;;;;;;;;24.00;99.90;;;;;;4196085;28;19958;-62
2022/08/23 06:01:20;;;;;;;;;;;24.10;99.90;;;;;;4196674;28;19904;-62
2022/08/23 06:03:21;;;;;;;;;;;24.20;99.90;;;;;;4195555;28;19915;-62
2022/08/23 06:05:22;;;;;;;;;;;24.10;99.90;;;;;;4196644;28;19905;-62
2022/08/23 06:07:22;;;;;;;;;;;24.00;99.90;;;;;;4195479;28;19911;-63
2022/08/23 06:09:23;;;;;;;;;;;24.10;99.90;;;;;;4196676;28;19940;-60
2022/08/23 06:11:26;;;;;;;;;;;24.30;99.90;;;;;;4195717;28;19958;-61
2022/08/23 06:13:27;;;;;;;;;;;24.80;99.90;;;;;;4196700;28;19916;-61
2022/08/23 06:15:28;;;;;;;;;;;25.30;99.90;;;;;;4195828;28;20282;-61
2022/08/23 06:17:29;;;;;;;;;;;25.90;99.90;;;;;;4196404;28;19904;-62
2022/08/23 06:19:30;;;;;;;;;;;26.10;99.90;;;;;;4196147;28;19908;-62
2022/08/23 06:21:32;;;;;;;;;;;26.50;99.90;;;;;;4196326;28;20276;-64
2022/08/23 06:23:34;;;;;;;;;;;26.80;99.90;;;;;;4196103;28;19904;-63
2022/08/23 06:25:36;;;;;;;;;;;27.10;99.90;;;;;;4195919;28;19904;-62
2022/08/23 06:27:36;;;;;;;;;;;27.20;99.90;;;;;;4196409;28;19930;-63
2022/08/23 06:29:37;;;;;;;;;;;27.10;99.90;;;;;;4195796;28;20438;-62
2022/08/23 06:31:46;;;;;;;;;;;27.20;99.90;;;;;;4196413;28;19915;-63
2022/08/23 06:33:47;;;;;;;;;;;27.30;99.90;;;;;;4194791;28;20451;-63
2022/08/23 06:35:49;;;;;;;;;;;27.70;99.90;;;;;;4196400;28;20353;-63
2022/08/23 06:37:50;;;;;;;;;;;28.10;99.90;;;;;;4195437;28;19912;-63
2022/08/23 06:39:51;;;;;;;;;;;28.20;99.90;;;;;;4196529;28;19908;-63
2022/08/23 06:41:56;;;;;;;;;;;28.50;99.90;;;;;;4194914;28;19908;-62
2022/08/23 06:43:57;;;;;;;;;;;27.70;99.90;;;;;;4196003;28;20318;-62
2022/08/23 06:46:08;;;;;;;;;;;27.70;99.90;;;;;;4195288;28;19904;-64
2022/08/23 06:48:09;;;;;;;;;;;27.60;99.90;;;;;;4195663;28;19962;-62
2022/08/23 06:50:10;;;;;;;;;;;27.10;99.90;;;;;;4195191;28;19954;-62
2022/08/23 06:52:11;;;;;;;;;;;26.10;99.90;;;;;;4195838;28;19991;-63
2022/08/23 06:54:13;;;;;;;;;;;25.40;99.90;;;;;;4194830;28;20298;-62
2022/08/23 06:56:14;;;;;;;;;;;25.10;99.90;;;;;;4195819;28;19904;-62
2022/08/23 06:58:15;;;;;;;;;;;24.80;99.90;;;;;;4194972;28;19915;-62
2022/08/23 07:00:16;;;;;;;;;;;24.60;99.90;;;;;;4195339;28;19904;-61
2022/08/23 07:02:17;;;;;;;;;;;25.00;99.90;;;;;;4195675;28;19958;-62
2022/08/23 07:04:20;;;;;;;;;;;25.30;99.90;;;;;;4194930;28;20384;-62
2022/08/23 07:06:25;;;;;;;;;;;25.50;99.90;;;;;;4195654;28;19905;-61
2022/08/23 07:08:27;;;;;;;;;;;26.00;99.90;;;;;;4194920;28;19912;-62
2022/08/23 07:10:28;;;;;;;;;;;26.10;99.90;;;;;;4194090;28;20370;-64
2022/08/23 07:12:29;;;;;;;;;;;25.60;99.90;;;;;;4194694;28;19908;-62
2022/08/23 07:14:30;;;;;;;;;;;25.40;99.90;;;;;;4195940;28;19950;-63
2022/08/23 07:16:32;;;;;;;;;;;25.60;99.90;;;;;;4194152;28;19981;-63
2022/08/23 07:18:33;;;;;;;;;;;25.90;99.90;;;;;;4195207;28;19908;-62
2022/08/23 07:20:34;;;;;;;;;;;26.00;99.90;;;;;;4194768;28;19977;-63
2022/08/23 07:22:35;;;;;;;;;;;26.00;99.90;;;;;;4195573;28;19973;-62
2022/08/23 07:24:36;;;;;;;;;;;26.00;99.90;;;;;;4194477;28;19909;-60
2022/08/23 07:26:38;;;;;;;;;;;26.00;99.90;;;;;;4195450;28;19905;-62
2022/08/23 07:28:40;;;;;;;;;;;25.90;99.90;;;;;;4194968;28;19905;-62
2022/08/23 07:30:41;;;;;;;;;;;25.80;99.90;;;;;;4195071;28;19916;-62
2022/08/23 07:32:43;;;;;;;;;;;25.60;99.90;;;;;;4194561;28;20014;-62
2022/08/23 07:34:44;;;;;;;;;;;25.40;99.90;;;;;;4194625;28;19973;-62
2022/08/23 07:36:46;;;;;;;;;;;25.40;99.90;;;;;;4195402;28;19912;-62
2022/08/23 07:38:47;;;;;;;;;;;25.50;99.90;;;;;;4194642;28;19904;-63
2022/08/23 07:40:48;;;;;;;;;;;25.50;99.90;;;;;;4195430;28;20312;-63
2022/08/23 07:42:49;;;;;;;;;;;25.60;99.90;;;;;;4194437;28;19905;-63
2022/08/23 07:44:51;;;;;;;;;;;25.70;99.90;;;;;;4194966;28;19970;-62
2022/08/23 07:46:52;;;;;;;;;;;26.00;99.90;;;;;;4193752;28;19969;-63
2022/08/23 07:48:54;;;;;;;;;;;26.40;99.90;;;;;;4195069;28;20352;-64
2022/08/23 07:50:57;;;;;;;;;;;26.30;99.90;;;;;;4194060;28;19950;-62
2022/08/23 07:52:58;;;;;;;;;;;26.00;99.90;;;;;;4194994;28;19990;-62
2022/08/23 07:54:59;;;;;;;;;;;26.00;99.90;;;;;;4194057;28;19908;-64
2022/08/23 07:57:00;;;;;;;;;;;26.00;99.90;;;;;;4194996;28;19911;-62
2022/08/23 07:59:01;;;;;;;;;;;25.90;99.90;;;;;;4194049;28;19912;-62
2022/08/23 08:01:14;;;;;;;;;;;25.90;99.90;;;;;;4194590;28;19908;-62
2022/08/23 08:03:16;;;;;;;;;;;25.70;99.90;;;;;;4193202;28;19904;-63
2022/08/23 08:05:17;;;;;;;;;;;25.70;99.90;;;;;;4193132;28;19912;-63
2022/08/23 08:07:20;;;;;;;;;;;25.30;99.90;;;;;;4194114;28;19908;-63
2022/08/23 08:09:21;;;;;;;;;;;25.20;99.90;;;;;;4193063;28;20322;-63
2022/08/23 08:11:24;;;;;;;;;;;25.00;99.90;;;;;;4194448;28;19904;-63
2022/08/23 08:13:25;;;;;;;;;;;25.10;99.90;;;;;;4193882;28;19916;-62
2022/08/23 08:15:26;;;;;;;;;;;25.10;99.90;;;;;;4194577;28;19911;-63
2022/08/23 08:17:27;;;;;;;;;;;25.10;99.90;;;;;;4193369;28;20277;-65
2022/08/23 08:19:28;;;;;;;;;;;25.20;99.90;;;;;;4194745;28;19950;-62
2022/08/23 08:21:29;;;;;;;;;;;25.00;99.90;;;;;;4193271;28;20351;-61
2022/08/23 08:23:29;;;;;;;;;;;24.80;99.90;;;;;;4193389;28;20035;-63
2022/08/23 08:25:33;;;;;;;;;;;24.80;99.90;;;;;;4193304;28;19990;-63
2022/08/23 08:27:34;;;;;;;;;;;24.90;99.90;;;;;;4194195;28;19909;-63
2022/08/23 08:29:35;;;;;;;;;;;24.90;99.90;;;;;;4193526;28;19912;-64
2022/08/23 08:31:37;;;;;;;;;;;25.20;99.90;;;;;;4194370;28;20368;-63
2022/08/23 08:33:38;;;;;;;;;;;25.30;99.90;;;;;;4192754;28;19947;-63
2022/08/23 08:35:39;;;;;;;;;;;25.10;99.90;;;;;;4193319;28;20015;-63
2022/08/23 08:37:40;;;;;;;;;;;25.20;99.90;;;;;;4193661;28;20332;-63
2022/08/23 08:39:44;;;;;;;;;;;25.20;99.90;;;;;;4193411;28;20264;-64
2022/08/23 08:42:03;;;;;;;;;;;25.20;99.90;;;;;;4194189;28;19908;-62
2022/08/23 08:44:12;;;;;;;;;;;25.30;99.90;;;;;;4193508;28;19950;-62
2022/08/23 08:46:16;;;;;;;;;;;25.60;99.90;;;;;;4193763;28;19908;-62
2022/08/23 08:48:21;;;;;;;;;;;25.80;99.90;;;;;;4193185;28;19912;-62
2022/08/23 08:50:42;;;;;;;;;;;25.80;99.90;;;;;;4194180;28;19935;-62
2022/08/23 08:52:46;;;;;;;;;;;25.80;99.90;;;;;;4193244;28;19934;-62
2022/08/23 08:54:48;;;;;;;;;;;25.90;99.90;;;;;;4193704;28;20807;-63
2022/08/23 08:56:51;;;;;;;;;;;25.90;99.90;;;;;;4192784;28;19905;-62
2022/08/23 08:58:53;;;;;;;;;;;25.90;99.90;;;;;;4194092;28;19908;-62
2022/08/23 09:00:54;;;;;;;;;;;26.00;99.90;;;;;;4192930;28;19938;-62
2022/08/23 09:02:57;;;;;;;;;;;25.80;99.90;;;;;;4193922;28;19962;-62
2022/08/23 09:04:59;;;;;;;;;;;25.70;99.90;;;;;;4192711;28;19904;-63
2022/08/23 09:07:00;;;;;;;;;;;25.70;99.90;;;;;;4193554;28;20008;-62
2022/08/23 09:09:10;;;;;;;;;;;25.60;99.90;;;;;;4192671;28;19908;-63
2022/08/23 09:11:19;;;;;;;;;;;25.50;99.90;;;;;;4194261;28;19905;-64
2022/08/23 09:13:39;;;;;;;;;;;25.30;99.90;;;;;;4192771;28;19958;-65
2022/08/23 09:15:45;;;;;;;;;;;25.40;99.90;;;;;;4193651;28;19977;-63
2022/08/23 09:17:57;;;;;;;;;;;25.40;99.90;;;;;;4192531;28;19912;-63
2022/08/23 09:19:59;;;;;;;;;;;25.30;99.90;;;;;;4193426;28;19909;-62
2022/08/23 09:22:02;;;;;;;;;;;25.50;99.90;;;;;;4192714;28;19916;-62
2022/08/23 09:24:03;;;;;;;;;;;25.60;99.90;;;;;;4193924;28;19955;-63
2022/08/23 09:26:15;;;;;;;;;;;25.60;99.90;;;;;;4192638;28;20361;-63
2022/08/23 09:28:17;;;;;;;;;;;25.50;99.90;;;;;;4193930;28;21442;-63
2022/08/23 09:30:18;;;;;;;;;;;25.60;99.90;;;;;;4192337;28;19904;-63
2022/08/23 09:32:33;;;;;;;;;;;25.60;99.90;;;;;;4193437;28;19908;-64
2022/08/23 09:34:35;;;;;;;;;;;25.60;99.90;;;;;;4192341;28;20360;-63
2022/08/23 09:36:37;;;;;;;;;;;25.70;99.90;;;;;;4193522;28;20298;-64
2022/08/23 09:38:48;;;;;;;;;;;25.70;99.90;;;;;;4192799;28;20338;-63
2022/08/23 09:40:49;;;;;;;;;;;25.70;99.90;;;;;;4193606;28;19999;-64
2022/08/23 09:43:13;;;;;;;;;;;25.90;99.90;;;;;;4192842;28;19958;-63
2022/08/23 09:45:14;;;;;;;;;;;26.00;99.90;;;;;;4193397;28;19940;-63
2022/08/23 09:47:15;;;;;;;;;;;26.00;99.90;;;;;;4192632;28;19958;-63
2022/08/23 09:49:21;;;;;;;;;;;26.00;99.90;;;;;;4192850;28;19916;-63
2022/08/23 09:51:22;;;;;;;;;;;26.00;99.90;;;;;;4193123;28;20450;-63
2022/08/23 09:53:25;;;;;;;;;;;26.20;99.90;;;;;;4192904;28;19920;-63
2022/08/23 09:55:32;;;;;;;;;;;26.40;99.90;;;;;;4193123;28;19950;-63
2022/08/23 09:57:33;;;;;;;;;;;26.60;99.90;;;;;;4192623;28;20402;-64
2022/08/23 09:59:38;;;;;;;;;;;26.70;99.90;;;;;;4193315;28;19949;-63
2022/08/23 10:01:39;;;;;;;;;;;26.70;99.90;;;;;;4192728;28;19953;-63
2022/08/23 10:03:41;;;;;;;;;;;26.70;99.90;;;;;;4193355;28;20327;-62
2022/08/23 10:05:42;;;;;;;;;;;26.60;99.90;;;;;;4192373;28;19908;-63
2022/08/23 10:07:52;;;;;;;;;;;26.60;99.90;;;;;;4193393;28;19930;-62
2022/08/23 10:09:54;;;;;;;;;;;26.80;99.90;;;;;;4192509;28;19912;-62
2022/08/23 10:11:56;;;;;;;;;;;26.90;99.90;;;;;;4193776;28;19905;-62
2022/08/23 10:13:57;;;;;;;;;;;27.10;99.90;;;;;;4191533;28;19912;-63
2022/08/23 10:16:23;;;;;;;;;;;26.90;99.90;;;;;;4193569;28;19974;-63
2022/08/23 10:18:30;;;;;;;;;;;26.80;99.90;;;;;;4191999;28;20348;-62
2022/08/23 10:20:35;;;;;;;;;;;26.70;99.90;;;;;;4193704;28;19912;-62
2022/08/23 10:22:52;;;;;;;;;;;26.70;99.90;;;;;;4192251;28;19908;-62
2022/08/23 10:24:59;;;;;;;;;;;26.60;99.90;;;;;;4193595;28;19905;-63
2022/08/23 10:29:35;;;;;;;;;;;26.70;99.90;;;;;;4190446;28;20361;-63
2022/08/23 10:29:36;;;;;;;;;;;26.70;99.90;;;;;;4193535;28;20335;-62
2022/08/23 10:31:38;;;;;;;;;;;26.70;99.90;;;;;;4192120;28;20270;-62
2022/08/23 10:33:47;;;;;;;;;;;26.80;99.90;;;;;;4195300;28;19962;-63
2022/08/23 10:35:56;;;;;;;;;;;26.90;99.90;;;;;;4195298;28;19904;-63
2022/08/23 10:38:16;;;;;;;;;;;27.00;99.90;;;;;;4196591;28;19908;-63
2022/08/23 10:40:28;;;;;;;;;;;26.90;99.90;;;;;;4194871;28;19975;-63
2022/08/23 10:42:48;;;;;;;;;;;26.80;99.90;;;;;;4196437;28;19950;-63
2022/08/23 10:45:12;;;;;;;;;;;26.80;99.90;;;;;;4195139;28;19908;-63
2022/08/23 10:47:29;;;;;;;;;;;26.90;99.90;;;;;;4187416;28;19904;-63
2022/08/23 10:49:32;;;;;;;;;;;26.90;99.90;;;;;;4195286;28;19905;-63
2022/08/23 10:51:36;;;;;;;;;;;26.90;99.90;;;;;;4196108;28;19904;-63
2022/08/23 10:54:07;;;;;;;;;;;26.80;99.90;;;;;;4195154;28;19958;-62
2022/08/23 10:56:12;;;;;;;;;;;26.90;99.90;;;;;;4182695;28;19908;-63
2022/08/23 10:58:17;;;;;;;;;;;27.10;99.90;;;;;;4195524;28;19905;-64
2022/08/23 11:00:21;;;;;;;;;;;27.00;99.90;;;;;;4195748;28;19904;-64
2022/08/23 11:02:35;;;;;;;;;;;27.10;99.90;;;;;;4194900;28;19908;-64
2022/08/23 11:04:55;;;;;;;;;;;27.10;99.90;;;;;;4195711;28;19904;-63
2022/08/23 11:07:00;;;;;;;;;;;27.10;99.90;;;;;;4194869;28;19957;-62
2022/08/23 11:09:01;;;;;;;;;;;27.00;99.90;;;;;;4195465;28;19908;-62
2022/08/23 11:11:02;;;;;;;;;;;27.00;99.90;;;;;;4194690;28;19905;-63
2022/08/23 11:13:05;;;;;;;;;;;26.90;99.90;;;;;;4195928;28;19904;-65
2022/08/23 11:15:06;;;;;;;;;;;26.90;99.90;;;;;;4194848;28;20346;-62
2022/08/23 11:17:09;;;;;;;;;;;26.90;99.90;;;;;;4196182;28;19953;-63
2022/08/23 11:19:13;;;;;;;;;;;27.10;99.90;;;;;;4192668;28;19990;-62
2022/08/23 11:21:17;;;;;;;;;;;27.20;99.90;;;;;;4195495;28;20340;-62
2022/08/23 11:23:33;;;;;;;;;;;27.30;99.90;;;;;;4194468;28;19954;-62
2022/08/23 11:25:38;;;;;;;;;;;27.30;99.90;;;;;;4196001;28;19959;-62
2022/08/23 11:27:41;;;;;;;;;;;27.20;99.90;;;;;;4194619;28;19912;-62
2022/08/23 11:29:42;;;;;;;;;;;27.10;99.90;;;;;;4196000;28;20010;-63
2022/08/23 11:31:46;;;;;;;;;;;27.20;99.90;;;;;;4194264;28;20011;-62
2022/08/23 11:34:07;;;;;;;;;;;27.30;99.90;;;;;;4195698;28;19916;-63
2022/08/23 11:36:08;;;;;;;;;;;27.50;99.90;;;;;;4193854;28;20418;-63
2022/08/23 11:38:10;;;;;;;;;;;27.60;99.90;;;;;;4195686;28;19904;-63
2022/08/23 11:40:11;;;;;;;;;;;27.80;99.90;;;;;;4194261;28;20352;-63
2022/08/23 11:42:18;;;;;;;;;;;27.80;99.90;;;;;;4195777;28;19951;-63
2022/08/23 11:44:36;;;;;;;;;;;27.90;99.90;;;;;;4192896;28;19942;-62
2022/08/23 11:46:49;;;;;;;;;;;27.90;99.50;;;;;;4195355;28;20344;-62
2022/08/23 11:49:10;;;;;;;;;;;28.00;99.60;;;;;;4194101;28;19912;-63
2022/08/23 11:51:11;;;;;;;;;;;28.10;99.30;;;;;;4164342;28;19908;-63
2022/08/23 11:53:30;;;;;;;;;;;28.00;99.40;;;;;;4194052;28;19950;-62
2022/08/23 11:55:49;;;;;;;;;;;28.00;99.30;;;;;;4195573;28;19927;-63
2022/08/23 11:58:00;;;;;;;;;;;28.10;99.20;;;;;;4193920;28;19908;-62
2022/08/23 12:00:07;;;;;;;;;;;28.20;99.10;;;;;;4195247;28;19908;-63
2022/08/23 12:02:30;;;;;;;;;;;28.30;99.00;;;;;;4193601;28;19973;-64
2022/08/23 12:04:31;;;;;;;;;;;28.30;99.30;;;;;;4194985;28;19912;-62
2022/08/23 12:06:42;;;;;;;;;;;28.20;99.00;;;;;;4193551;28;19909;-62